createdAt,value
2023-03-16T00:00:16.523Z,86.09
2023-03-16T00:02:43.462Z,86.22
2023-03-16T00:05:12.982Z,86.83
2023-03-16T00:07:41.872Z,85.95
2023-03-16T00:10:09.802Z,86.46
2023-03-16T00:12:36.194Z,86.75
2023-03-16T00:15:03.212Z,86.43
2023-03-16T00:17:29.621Z,86.32
2023-03-16T00:19:57.338Z,86.85
2023-03-16T00:22:26.104Z,86.25
2023-03-16T00:24:53.193Z,86.80
2023-03-16T00:27:22.565Z,86.61
2023-03-16T00:29:55.923Z,86.19
2023-03-16T00:32:28.497Z,86.88
2023-03-16T00:34:55.837Z,86.56
2023-03-16T00:37:23.527Z,85.80
2023-03-16T00:39:51.644Z,85.95
2023-03-16T00:42:19.926Z,85.81
2023-03-16T00:44:46.929Z,86.26
2023-03-16T00:47:17.081Z,86.35
2023-03-16T00:49:44.117Z,86.78
2023-03-16T00:52:15.671Z,86.73
2023-03-16T00:54:43.856Z,86.96
2023-03-16T00:57:12.558Z,87.50
2023-03-16T00:59:39.394Z,87.14
2023-03-16T01:02:07.589Z,87.95
2023-03-16T01:04:35.880Z,88.64
2023-03-16T01:07:06.298Z,88.41
2023-03-16T01:09:37.020Z,89.21
2023-03-16T01:12:06.120Z,89.08
2023-03-16T01:14:35.304Z,88.70
2023-03-16T01:17:06.390Z,89.78
2023-03-16T01:19:34.052Z,89.43
2023-03-16T01:22:00.483Z,89.40
2023-03-16T01:24:26.938Z,90.29
2023-03-16T01:26:54.236Z,89.72
2023-03-16T01:29:20.711Z,90.12
2023-03-16T01:31:49.847Z,90.03
2023-03-16T01:34:18.550Z,90.82
2023-03-16T01:36:48.738Z,90.47
2023-03-16T01:39:22.381Z,91.26
2023-03-16T01:41:49.862Z,90.46
2023-03-16T01:44:24.273Z,90.93
2023-03-16T01:46:51.121Z,91.05
2023-03-16T01:49:23.796Z,91.67
2023-03-16T01:52:08.471Z,90.97
2023-03-16T01:54:39.654Z,90.62
2023-03-16T01:57:07.899Z,90.74
2023-03-16T01:59:39.963Z,90.83
2023-03-16T02:02:08.944Z,90.93
2023-03-16T02:04:44.575Z,90.67
2023-03-16T02:07:17.331Z,90.63
2023-03-16T02:09:49.623Z,90.96
2023-03-16T02:12:17.960Z,90.55
2023-03-16T02:14:49.836Z,91.37
2023-03-16T02:17:20.858Z,91.19
2023-03-16T02:19:58.153Z,90.57
2023-03-16T02:22:25.070Z,91.11
2023-03-16T02:24:53.003Z,90.81
2023-03-16T02:27:43.404Z,90.30
2023-03-16T02:30:18.296Z,90.28
2023-03-16T02:32:58.411Z,90.43
2023-03-16T02:35:25.053Z,89.98
2023-03-16T02:37:52.560Z,90.15
2023-03-16T02:40:30.295Z,90.78
2023-03-16T02:43:12.833Z,90.88
2023-03-16T02:45:50.007Z,90.44
2023-03-16T02:48:20.054Z,90.98
2023-03-16T02:50:50.283Z,90.55
2023-03-16T02:53:17.196Z,91.15
2023-03-16T02:55:44.943Z,90.57
2023-03-16T02:58:12.077Z,90.89
2023-03-16T03:00:39.114Z,90.36
2023-03-16T03:03:08.456Z,90.71
2023-03-16T03:05:36.611Z,90.56
2023-03-16T03:08:04.601Z,91.20
2023-03-16T03:10:31.541Z,91.15
2023-03-16T03:12:58.307Z,90.83
2023-03-16T03:15:24.946Z,90.70
2023-03-16T03:18:06.285Z,91.79
2023-03-16T03:20:33.356Z,91.81
2023-03-16T03:22:59.803Z,91.32
2023-03-16T03:25:26.401Z,91.55
2023-03-16T03:27:57.176Z,92.19
2023-03-16T03:30:25.564Z,92.53
2023-03-16T03:32:52.496Z,91.50
2023-03-16T03:35:21.331Z,91.44
2023-03-16T03:37:48.008Z,92.11
2023-03-16T03:40:17.381Z,91.91
2023-03-16T03:42:47.478Z,92.01
2023-03-16T03:45:15.018Z,91.50
2023-03-16T03:47:43.214Z,92.40
2023-03-16T03:50:14.089Z,92.26
2023-03-16T03:53:07.331Z,91.94
2023-03-16T03:55:43.669Z,91.68
2023-03-16T03:58:10.109Z,91.85
2023-03-16T04:00:36.521Z,91.96
2023-03-16T04:03:03.407Z,91.68
2023-03-16T04:05:35.164Z,91.54
2023-03-16T04:08:01.655Z,91.06
2023-03-16T04:10:30.364Z,90.79
2023-03-16T04:12:59.472Z,91.06
2023-03-16T04:15:27.923Z,91.54
2023-03-16T04:18:10.148Z,90.86
2023-03-16T04:20:37.060Z,91.14
2023-03-16T04:23:04.937Z,91.51
2023-03-16T04:25:31.993Z,91.50
2023-03-16T04:27:59.055Z,91.06
2023-03-16T04:30:30.863Z,91.31
2023-03-16T04:33:06.801Z,91.66
2023-03-16T04:35:33.374Z,92.19
2023-03-16T04:37:59.816Z,92.12
2023-03-16T04:40:36.244Z,91.34
2023-03-16T04:43:09.328Z,92.51
2023-03-16T04:45:36.421Z,92.35
2023-03-16T04:48:03.241Z,91.75
2023-03-16T04:50:30.227Z,91.87
2023-03-16T04:52:57.084Z,92.63
2023-03-16T04:55:24.283Z,91.93
2023-03-16T04:57:52.458Z,92.18
2023-03-16T05:00:20.989Z,92.34
2023-03-16T05:02:56.037Z,91.40
2023-03-16T05:05:22.524Z,91.90
2023-03-16T05:07:49.313Z,92.26
2023-03-16T05:10:19.137Z,92.27
2023-03-16T05:12:46.656Z,93.17
2023-03-16T05:15:13.879Z,92.53
2023-03-16T05:17:42.349Z,93.28
2023-03-16T05:20:15.393Z,93.43
2023-03-16T05:22:48.100Z,93.57
2023-03-16T05:25:23.023Z,93.39
2023-03-16T05:27:54.154Z,94.16
2023-03-16T05:30:36.897Z,94.18
2023-03-16T05:33:05.821Z,93.64
2023-03-16T05:35:32.770Z,94.01
2023-03-16T05:38:04.346Z,94.50
2023-03-16T05:40:34.179Z,95.05
2023-03-16T05:43:10.366Z,94.84
2023-03-16T05:45:42.412Z,94.58
2023-03-16T05:48:14.892Z,94.60
2023-03-16T05:50:45.371Z,95.44
2023-03-16T05:53:15.204Z,94.68
2023-03-16T05:55:42.177Z,94.92
2023-03-16T05:58:11.808Z,95.64
2023-03-16T06:00:40.450Z,95.07
2023-03-16T06:03:22.677Z,95.66
2023-03-16T06:05:50.122Z,95.90
2023-03-16T06:08:23.040Z,95.73
2023-03-16T06:10:51.364Z,96.19
2023-03-16T06:13:18.722Z,96.07
2023-03-16T06:15:45.274Z,95.53
2023-03-16T06:18:13.327Z,95.11
2023-03-16T06:20:39.781Z,95.19
2023-03-16T06:23:06.762Z,95.14
2023-03-16T06:25:33.226Z,96.21
2023-03-16T06:28:00.067Z,95.65
2023-03-16T06:30:26.941Z,95.32
2023-03-16T06:32:53.579Z,95.22
2023-03-16T06:35:20.086Z,95.98
2023-03-16T06:38:08.162Z,95.55
2023-03-16T06:41:06.717Z,96.22
2023-03-16T06:43:34.953Z,96.06
2023-03-16T06:46:01.762Z,96.03
2023-03-16T06:48:29.420Z,95.61
2023-03-16T06:50:56.073Z,95.61
2023-03-16T06:53:26.211Z,95.56
2023-03-16T06:55:53.920Z,95.33
2023-03-16T06:58:21.163Z,96.32
2023-03-16T07:00:47.668Z,95.81
2023-03-16T07:03:14.143Z,95.16
2023-03-16T07:05:46.758Z,96.00
2023-03-16T07:08:15.073Z,95.82
2023-03-16T07:10:42.245Z,95.47
2023-03-16T07:13:08.728Z,95.22
2023-03-16T07:15:35.175Z,95.62
2023-03-16T07:18:02.340Z,95.24
2023-03-16T07:20:31.407Z,94.84
2023-03-16T07:22:59.685Z,95.45
2023-03-16T07:25:26.705Z,94.91
2023-03-16T07:27:54.421Z,94.60
2023-03-16T07:30:27.662Z,94.25
2023-03-16T07:32:54.335Z,94.74
2023-03-16T07:35:23.424Z,94.46
2023-03-16T07:37:50.495Z,93.91
2023-03-16T07:40:18.722Z,94.75
2023-03-16T07:42:45.291Z,93.64
2023-03-16T07:45:25.108Z,93.31
2023-03-16T07:47:52.121Z,93.50
2023-03-16T07:50:30.933Z,93.24
2023-03-16T07:52:57.665Z,93.38
2023-03-16T07:55:24.292Z,93.26
2023-03-16T07:57:51.936Z,93.07
2023-03-16T08:00:25.747Z,93.47
2023-03-16T08:02:53.694Z,93.27
2023-03-16T08:05:20.166Z,93.10
2023-03-16T08:07:51.703Z,92.76
2023-03-16T08:10:22.111Z,92.59
2023-03-16T08:12:59.270Z,92.77
2023-03-16T08:15:26.141Z,92.06
2023-03-16T08:18:00.322Z,92.54
2023-03-16T08:20:27.130Z,92.35
2023-03-16T08:22:53.894Z,92.50
2023-03-16T08:25:25.530Z,92.08
2023-03-16T08:28:10.637Z,91.98
2023-03-16T08:30:44.715Z,91.49
2023-03-16T08:33:33.400Z,91.30
2023-03-16T08:36:00.651Z,91.10
2023-03-16T08:38:27.549Z,90.65
2023-03-16T08:40:57.192Z,90.79
2023-03-16T08:43:24.048Z,90.67
2023-03-16T08:45:52.358Z,90.73
2023-03-16T08:48:22.277Z,90.52
2023-03-16T08:50:51.706Z,90.05
2023-03-16T08:53:18.858Z,90.32
2023-03-16T08:55:46.187Z,90.15
2023-03-16T08:58:13.946Z,90.39
2023-03-16T09:00:41.142Z,90.49
2023-03-16T09:03:07.586Z,90.38
2023-03-16T09:05:34.299Z,90.03
2023-03-16T09:08:01.550Z,90.31
2023-03-16T09:10:28.901Z,89.83
2023-03-16T09:12:55.570Z,89.14
2023-03-16T09:15:22.172Z,89.56
2023-03-16T09:17:48.933Z,89.83
2023-03-16T09:20:26.135Z,89.30
2023-03-16T09:22:55.461Z,88.96
2023-03-16T09:25:23.057Z,88.87
2023-03-16T09:27:49.476Z,89.00
2023-03-16T09:30:17.001Z,89.01
2023-03-16T09:32:43.692Z,88.21
2023-03-16T09:35:10.177Z,88.51
2023-03-16T09:37:45.104Z,87.98
2023-03-16T09:40:26.581Z,88.02
2023-03-16T09:43:30.487Z,87.66
2023-03-16T09:46:03.146Z,87.78
2023-03-16T09:48:32.753Z,88.33
2023-03-16T09:51:03.563Z,88.12
2023-03-16T09:53:36.958Z,86.94
2023-03-16T09:56:11.323Z,87.09
2023-03-16T09:58:38.477Z,86.85
2023-03-16T10:01:23.417Z,85.51
2023-03-16T10:04:16.922Z,84.54
2023-03-16T10:06:51.056Z,84.61
2023-03-16T10:09:38.508Z,84.34
2023-03-16T10:12:07.779Z,83.28
2023-03-16T10:14:47.000Z,82.43
2023-03-16T10:17:18.441Z,82.83
2023-03-16T10:19:52.752Z,82.70
2023-03-16T10:22:28.172Z,81.46
2023-03-16T10:25:09.064Z,81.64
2023-03-16T10:27:40.615Z,79.55
2023-03-16T10:30:19.727Z,78.98
2023-03-16T10:32:47.089Z,79.38
2023-03-16T10:35:29.230Z,78.33
2023-03-16T10:37:57.140Z,77.83
2023-03-16T10:40:23.624Z,77.61
2023-03-16T10:42:50.074Z,76.50
2023-03-16T10:45:34.342Z,76.32
2023-03-16T10:48:09.058Z,76.03
2023-03-16T10:50:36.202Z,76.33
2023-03-16T10:53:04.410Z,75.13
2023-03-16T10:55:41.039Z,75.09
2023-03-16T10:58:08.699Z,75.26
2023-03-16T11:00:38.307Z,74.39
2023-03-16T11:03:33.529Z,73.17
2023-03-16T11:06:02.741Z,73.25
2023-03-16T11:08:38.832Z,72.64
2023-03-16T11:11:16.892Z,72.48
2023-03-16T11:13:46.047Z,71.87
2023-03-16T11:16:47.565Z,70.41
2023-03-16T11:19:24.344Z,69.94
2023-03-16T11:22:00.234Z,69.33
2023-03-16T11:24:53.804Z,68.57
2023-03-16T11:28:11.791Z,67.82
2023-03-16T11:30:42.390Z,67.32
2023-03-16T11:33:10.425Z,67.22
2023-03-16T11:36:01.207Z,67.50
2023-03-16T11:38:44.052Z,67.14
2023-03-16T11:41:15.309Z,67.50
2023-03-16T11:43:41.700Z,67.61
2023-03-16T11:46:25.265Z,67.36
2023-03-16T11:49:29.036Z,66.49
2023-03-16T11:52:17.286Z,66.34
2023-03-16T11:55:02.249Z,65.80
2023-03-16T11:57:46.556Z,64.95
2023-03-16T12:00:34.400Z,64.67
2023-03-16T12:03:32.900Z,64.33
2023-03-16T12:06:23.582Z,63.90
2023-03-16T12:09:08.296Z,63.59
2023-03-16T12:12:01.987Z,62.46
2023-03-16T12:14:46.995Z,62.56
2023-03-16T12:17:19.437Z,62.80
2023-03-16T12:19:52.047Z,61.57
2023-03-16T12:22:28.042Z,61.51
2023-03-16T12:24:55.156Z,61.44
2023-03-16T12:27:31.522Z,61.71
2023-03-16T12:30:09.490Z,61.20
2023-03-16T12:32:46.652Z,59.55
2023-03-16T12:35:22.555Z,59.39
2023-03-16T12:38:15.146Z,56.73
2023-03-16T12:41:10.124Z,54.92
2023-03-16T12:44:01.602Z,54.62
2023-03-16T12:46:48.001Z,53.96
2023-03-16T12:49:15.146Z,52.15
2023-03-16T12:51:43.411Z,49.92
2023-03-16T12:54:21.430Z,50.18
2023-03-16T12:56:50.281Z,50.64
2023-03-16T12:59:19.666Z,49.91
2023-03-16T13:01:50.877Z,49.65
2023-03-16T13:04:29.757Z,48.69
2023-03-16T13:07:23.885Z,48.66
2023-03-16T13:09:57.120Z,48.52
2023-03-16T13:12:28.554Z,47.48
2023-03-16T13:14:55.835Z,46.88
2023-03-16T13:17:31.687Z,48.08
2023-03-16T13:20:30.861Z,47.61
2023-03-16T13:23:23.810Z,47.61
2023-03-16T13:26:16.389Z,46.86
2023-03-16T13:28:46.038Z,46.55
2023-03-16T13:31:29.566Z,46.83
2023-03-16T13:33:59.953Z,46.95
2023-03-16T13:36:29.395Z,46.22
2023-03-16T13:39:05.086Z,46.28
2023-03-16T13:41:31.522Z,46.11
2023-03-16T13:43:57.926Z,45.58
2023-03-16T13:46:29.618Z,44.71
2023-03-16T13:49:00.710Z,44.56
2023-03-16T13:51:30.875Z,43.33
2023-03-16T13:53:57.447Z,42.42
2023-03-16T13:56:28.724Z,42.62
2023-03-16T13:58:57.184Z,41.77
2023-03-16T14:01:29.711Z,42.13
2023-03-16T14:03:59.850Z,42.18
2023-03-16T14:06:29.465Z,42.25
2023-03-16T14:09:01.090Z,41.64
2023-03-16T14:11:28.530Z,41.44
2023-03-16T14:14:00.452Z,41.45
2023-03-16T14:16:28.856Z,41.27
2023-03-16T14:19:03.963Z,40.91
2023-03-16T14:21:34.286Z,40.21
2023-03-16T14:24:04.554Z,39.98
2023-03-16T14:26:42.539Z,39.43
2023-03-16T14:29:26.767Z,39.47
2023-03-16T14:31:54.314Z,39.90
2023-03-16T14:34:29.552Z,39.83
2023-03-16T14:37:09.849Z,39.90
2023-03-16T14:39:36.397Z,39.24
2023-03-16T14:42:05.298Z,38.97
2023-03-16T14:44:35.417Z,38.74
2023-03-16T14:47:04.733Z,38.66
2023-03-16T14:49:37.341Z,39.30
2023-03-16T14:52:21.841Z,40.25
2023-03-16T14:54:48.295Z,41.23
2023-03-16T14:57:17.201Z,42.42
2023-03-16T14:59:43.722Z,43.64
2023-03-16T15:02:20.146Z,45.30
2023-03-16T15:04:48.365Z,45.83
2023-03-16T15:07:27.091Z,46.30
2023-03-16T15:09:55.208Z,47.41
2023-03-16T15:12:24.898Z,47.81
2023-03-16T15:15:10.558Z,48.12
2023-03-16T15:17:37.087Z,49.24
2023-03-16T15:20:04.247Z,49.74
2023-03-16T15:22:37.136Z,49.82
2023-03-16T15:25:19.473Z,49.21
2023-03-16T15:27:47.549Z,48.60
2023-03-16T15:30:19.422Z,48.45
2023-03-16T15:32:46.116Z,48.84
2023-03-16T15:35:12.589Z,48.27
2023-03-16T15:37:39.497Z,46.98
2023-03-16T15:40:16.397Z,46.55
2023-03-16T15:42:43.688Z,46.07
2023-03-16T15:45:14.341Z,44.33
2023-03-16T15:47:42.183Z,43.99
2023-03-16T15:50:11.761Z,44.60
2023-03-16T15:52:41.405Z,45.51
2023-03-16T15:55:17.491Z,47.21
2023-03-16T15:57:45.428Z,48.63
2023-03-16T16:00:28.484Z,49.99
2023-03-16T16:02:56.807Z,50.71
2023-03-16T16:05:24.888Z,51.43
2023-03-16T16:07:52.481Z,52.65
2023-03-16T16:10:19.209Z,53.02
2023-03-16T16:12:51.286Z,53.29
2023-03-16T16:15:25.389Z,53.90
2023-03-16T16:18:16.387Z,54.37
2023-03-16T16:20:40.019Z,54.70
2023-03-16T16:23:06.570Z,54.86
2023-03-16T16:25:39.175Z,55.17
2023-03-16T16:28:22.124Z,55.33
2023-03-16T16:30:49.106Z,55.73
2023-03-16T16:33:26.945Z,56.04
2023-03-16T16:35:54.887Z,56.18
2023-03-16T16:38:22.291Z,56.34
2023-03-16T16:40:49.362Z,56.98
2023-03-16T16:43:42.691Z,57.14
2023-03-16T16:46:18.458Z,57.06
2023-03-16T16:48:47.844Z,57.96
2023-03-16T16:51:27.877Z,58.13
2023-03-16T16:53:56.242Z,58.25
2023-03-16T16:56:35.093Z,59.25
2023-03-16T16:59:15.501Z,60.02
2023-03-16T17:01:42.242Z,60.73
2023-03-16T17:04:24.561Z,61.27
2023-03-16T17:06:55.270Z,62.10
2023-03-16T17:09:23.623Z,62.16
2023-03-16T17:11:51.015Z,63.30
2023-03-16T17:14:19.852Z,62.88
2023-03-16T17:16:48.212Z,63.41
2023-03-16T17:19:23.249Z,63.53
2023-03-16T17:21:55.321Z,63.58
2023-03-16T17:24:22.624Z,63.33
2023-03-16T17:26:52.407Z,64.23
2023-03-16T17:29:24.266Z,64.65
2023-03-16T17:31:51.207Z,65.49
2023-03-16T17:34:21.313Z,64.71
2023-03-16T17:36:48.142Z,65.49
2023-03-16T17:39:29.409Z,65.61
2023-03-16T17:42:02.014Z,65.62
2023-03-16T17:44:41.861Z,65.76
2023-03-16T17:47:23.549Z,66.93
2023-03-16T17:49:50.783Z,66.14
2023-03-16T17:52:23.470Z,66.28
2023-03-16T17:54:51.969Z,66.14
2023-03-16T17:57:24.393Z,66.68
2023-03-16T17:59:51.217Z,66.64
2023-03-16T18:02:49.587Z,67.64
2023-03-16T18:05:18.937Z,67.71
2023-03-16T18:07:46.702Z,67.36
2023-03-16T18:10:23.036Z,67.66
2023-03-16T18:12:57.358Z,68.01
2023-03-16T18:15:27.641Z,67.49
2023-03-16T18:17:54.654Z,68.30
2023-03-16T18:20:30.864Z,67.82
2023-03-16T18:22:58.972Z,68.30
2023-03-16T18:25:34.467Z,68.97
2023-03-16T18:28:02.195Z,68.66
2023-03-16T18:30:29.826Z,68.17
2023-03-16T18:32:57.640Z,68.16
2023-03-16T18:35:24.317Z,68.51
2023-03-16T18:37:50.841Z,68.85
2023-03-16T18:40:18.727Z,68.72
2023-03-16T18:42:45.654Z,68.45
2023-03-16T18:45:16.374Z,68.55
2023-03-16T18:47:51.973Z,68.86
2023-03-16T18:50:27.375Z,68.91
2023-03-16T18:52:54.925Z,68.60
2023-03-16T18:55:24.473Z,68.59
2023-03-16T18:57:56.216Z,67.67
2023-03-16T19:00:26.559Z,67.81
2023-03-16T19:03:03.056Z,68.30
2023-03-16T19:05:35.681Z,68.16
2023-03-16T19:08:04.906Z,68.22
2023-03-16T19:10:35.507Z,67.85
2023-03-16T19:13:02.496Z,68.39
2023-03-16T19:15:32.433Z,68.03
2023-03-16T19:17:59.330Z,68.60
2023-03-16T19:20:29.549Z,68.64
2023-03-16T19:23:12.828Z,68.74
2023-03-16T19:25:41.233Z,68.63
2023-03-16T19:28:14.599Z,69.32
2023-03-16T19:30:41.412Z,69.24
2023-03-16T19:33:18.980Z,68.43
2023-03-16T19:35:51.764Z,68.92
2023-03-16T19:38:19.874Z,69.19
2023-03-16T19:40:48.877Z,69.67
2023-03-16T19:43:18.255Z,69.52
2023-03-16T19:45:45.644Z,69.29
2023-03-16T19:48:16.592Z,69.92
2023-03-16T19:50:43.101Z,69.85
2023-03-16T19:53:16.598Z,70.14
2023-03-16T19:55:43.255Z,69.53
2023-03-16T19:58:35.019Z,70.50
2023-03-16T20:01:01.972Z,70.30
2023-03-16T20:03:31.656Z,70.99
2023-03-16T20:05:58.203Z,71.06
2023-03-16T20:08:27.520Z,70.22
2023-03-16T20:11:07.239Z,71.34
2023-03-16T20:13:35.262Z,71.61
2023-03-16T20:16:03.235Z,71.19
2023-03-16T20:18:29.992Z,71.06
2023-03-16T20:20:57.007Z,71.03
2023-03-16T20:23:28.315Z,71.25
2023-03-16T20:25:56.297Z,71.59
2023-03-16T20:28:32.636Z,71.16
2023-03-16T20:30:59.391Z,71.92
2023-03-16T20:33:27.312Z,72.45
2023-03-16T20:35:53.823Z,72.51
2023-03-16T20:38:21.841Z,72.01
2023-03-16T20:40:53.371Z,72.17
2023-03-16T20:43:27.608Z,72.61
2023-03-16T20:45:56.434Z,72.25
2023-03-16T20:48:25.510Z,72.55
2023-03-16T20:50:53.799Z,71.93
2023-03-16T20:53:20.769Z,72.99
2023-03-16T20:55:48.610Z,72.63
2023-03-16T20:58:34.983Z,73.27
2023-03-16T21:01:03.500Z,73.52
2023-03-16T21:03:30.880Z,72.92
2023-03-16T21:05:59.779Z,73.26
2023-03-16T21:08:26.724Z,73.55
2023-03-16T21:10:53.661Z,73.12
2023-03-16T21:13:25.921Z,73.94
2023-03-16T21:15:54.941Z,73.75
2023-03-16T21:18:22.091Z,74.11
2023-03-16T21:20:50.224Z,73.47
2023-03-16T21:23:19.741Z,73.55
2023-03-16T21:26:03.089Z,73.84
2023-03-16T21:28:33.681Z,74.78
2023-03-16T21:31:01.033Z,74.10
2023-03-16T21:33:30.075Z,73.89
2023-03-16T21:35:57.584Z,74.61
2023-03-16T21:38:25.938Z,74.75
2023-03-16T21:40:52.761Z,74.14
2023-03-16T21:43:19.583Z,74.12
2023-03-16T21:45:46.881Z,74.00
2023-03-16T21:48:18.545Z,74.37
2023-03-16T21:50:45.145Z,73.93
2023-03-16T21:53:22.025Z,73.87
2023-03-16T21:55:49.795Z,74.60
2023-03-16T21:58:17.197Z,74.40
2023-03-16T22:00:44.333Z,74.41
2023-03-16T22:03:26.411Z,74.20
2023-03-16T22:05:54.193Z,74.00
2023-03-16T22:08:23.844Z,74.20
2023-03-16T22:10:51.162Z,74.12
2023-03-16T22:13:19.176Z,73.84
2023-03-16T22:15:48.375Z,74.07
2023-03-16T22:18:35.836Z,74.34
2023-03-16T22:21:17.584Z,74.46
2023-03-16T22:23:44.737Z,74.39
2023-03-16T22:26:16.631Z,74.28
2023-03-16T22:28:43.633Z,74.45
2023-03-16T22:31:15.383Z,74.26
2023-03-16T22:33:43.278Z,74.50
2023-03-16T22:36:21.636Z,74.87
2023-03-16T22:39:02.570Z,74.99
2023-03-16T22:41:30.105Z,74.47
2023-03-16T22:43:57.356Z,75.43
2023-03-16T22:46:26.342Z,75.23
2023-03-16T22:48:53.779Z,75.36
2023-03-16T22:51:29.796Z,74.99
2023-03-16T22:54:01.210Z,75.24
2023-03-16T22:56:29.223Z,75.43
2023-03-16T22:59:00.639Z,74.91
2023-03-16T23:01:32.739Z,75.17
2023-03-16T23:03:59.193Z,75.22
2023-03-16T23:06:28.093Z,75.19
2023-03-16T23:08:55.650Z,75.11
2023-03-16T23:11:27.298Z,74.94
2023-03-16T23:13:54.706Z,75.23
2023-03-16T23:16:25.438Z,75.48
2023-03-16T23:18:52.692Z,75.43
2023-03-16T23:21:22.811Z,75.37
2023-03-16T23:24:02.665Z,75.19
2023-03-16T23:26:29.804Z,75.50
2023-03-16T23:28:57.107Z,75.45
2023-03-16T23:31:26.015Z,75.53
2023-03-16T23:33:52.780Z,75.68
2023-03-16T23:36:21.345Z,75.36
2023-03-16T23:38:48.780Z,75.35
2023-03-16T23:41:19.830Z,75.25
2023-03-16T23:43:47.127Z,74.95
2023-03-16T23:46:17.061Z,75.23
2023-03-16T23:48:45.189Z,75.07
2023-03-16T23:51:21.901Z,75.34
2023-03-16T23:53:49.290Z,75.06
2023-03-16T23:56:16.611Z,75.38
2023-03-16T23:58:43.090Z,75.36
